Time;durP1;ratioP1;P1;durP2;ratioP2;P2;SDS_P1;SDS_P2;PMS_P1;PMS_P2;Temp;Humidity;BMP_temperature;BMP_pressure;BME280_temperature;BME280_humidity;BME280_pressure;Samples;Min_cycle;Max_cycle;Signal;HPM_P1;HPM_P2
2021/04/14 00:01:27;;;;;;;10.30;4.47;;;;;;;;;;10369031;28;20240;-78
2021/04/14 00:06:29;;;;;;;8.23;4.10;;;;;;;;;;10383808;28;20216;-78
2021/04/14 00:11:32;;;;;;;6.00;3.93;;;;;;;;;;10379638;28;20568;-78
2021/04/14 00:16:34;;;;;;;9.57;3.80;;;;;;;;;;10382663;28;20208;-79
2021/04/14 00:21:36;;;;;;;6.07;4.00;;;;;;;;;;10381121;28;20319;-78
2021/04/14 00:26:39;;;;;;;7.50;3.70;;;;;;;;;;10382574;28;20675;-79
2021/04/14 00:31:41;;;;;;;6.07;3.80;;;;;;;;;;10379581;28;20220;-79
2021/04/14 00:36:44;;;;;;;11.10;3.87;;;;;;;;;;10382083;28;20216;-80
2021/04/14 00:41:48;;;;;;;7.57;3.63;;;;;;;;;;10381059;28;20243;-78
2021/04/14 00:46:50;;;;;;;6.90;4.03;;;;;;;;;;10380131;28;20979;-79
2021/04/14 01:39:44;;;;;;;8.07;3.67;;;;;;;;;;10427306;28;20218;-79
2021/04/14 01:44:46;;;;;;;7.27;3.60;;;;;;;;;;10420057;28;21036;-77
2021/04/14 01:49:49;;;;;;;7.33;3.40;;;;;;;;;;10428185;28;20759;-78
2021/04/14 01:54:52;;;;;;;6.30;3.70;;;;;;;;;;10425183;28;20219;-80
2021/04/14 01:59:54;;;;;;;6.40;3.60;;;;;;;;;;10425662;28;20676;-80
2021/04/14 02:04:56;;;;;;;6.50;3.93;;;;;;;;;;10421679;28;20235;-79
2021/04/14 02:09:59;;;;;;;5.40;3.87;;;;;;;;;;10429305;28;20586;-79
2021/04/14 02:15:02;;;;;;;6.00;3.67;;;;;;;;;;10429353;28;20223;-80
2021/04/14 02:20:04;;;;;;;12.20;3.60;;;;;;;;;;10419855;28;20216;-78
2021/04/14 02:25:11;;;;;;;5.60;3.73;;;;;;;;;;10427752;28;20236;-78
2021/04/14 02:30:14;;;;;;;7.43;3.70;;;;;;;;;;10422403;28;20223;-78
2021/04/14 02:35:16;;;;;;;6.27;3.50;;;;;;;;;;10434549;28;20212;-78
2021/04/14 02:40:19;;;;;;;6.83;3.90;;;;;;;;;;10425529;28;20216;-78
2021/04/14 02:45:22;;;;;;;5.70;3.70;;;;;;;;;;10423605;28;20735;-79
2021/04/14 02:50:24;;;;;;;8.53;4.13;;;;;;;;;;10423329;28;20512;-79
2021/04/14 02:55:28;;;;;;;8.40;4.03;;;;;;;;;;10422737;28;20224;-80
2021/04/14 03:00:30;;;;;;;7.10;3.87;;;;;;;;;;10414059;28;20672;-80
2021/04/14 03:05:33;;;;;;;6.60;3.90;;;;;;;;;;10416434;28;20231;-80
2021/04/14 03:10:38;;;;;;;7.03;3.80;;;;;;;;;;10408568;28;20206;-79
2021/04/14 03:15:41;;;;;;;7.47;3.80;;;;;;;;;;10416546;28;20210;-80
2021/04/14 03:20:44;;;;;;;6.43;3.90;;;;;;;;;;10418631;28;20716;-79
2021/04/14 03:25:46;;;;;;;6.40;4.10;;;;;;;;;;10415546;28;20238;-80
2021/04/14 03:30:51;;;;;;;6.57;4.30;;;;;;;;;;10411742;28;20219;-80
2021/04/14 03:35:53;;;;;;;7.93;4.07;;;;;;;;;;10412759;28;20329;-79
2021/04/14 03:40:57;;;;;;;5.37;4.10;;;;;;;;;;10402493;28;20211;-79
2021/04/14 03:45:59;;;;;;;6.97;4.33;;;;;;;;;;10413426;28;20231;-79
2021/04/14 03:51:01;;;;;;;5.43;3.87;;;;;;;;;;10408867;28;20208;-79
2021/04/14 03:56:05;;;;;;;6.60;4.23;;;;;;;;;;10413492;28;20223;-79
2021/04/14 04:01:08;;;;;;;8.43;4.60;;;;;;;;;;10407249;28;20223;-80
2021/04/14 04:06:10;;;;;;;10.90;4.60;;;;;;;;;;10405503;28;20769;-79
2021/04/14 04:11:13;;;;;;;6.93;4.73;;;;;;;;;;10403083;28;20696;-80
2021/04/14 04:16:14;;;;;;;7.07;4.73;;;;;;;;;;10425277;28;20598;-79
2021/04/14 04:21:17;;;;;;;7.03;4.50;;;;;;;;;;10421974;28;20220;-80
2021/04/14 04:26:20;;;;;;;6.90;4.27;;;;;;;;;;10414519;28;20750;-86
2021/04/14 04:31:22;;;;;;;8.73;4.80;;;;;;;;;;10416895;28;20258;-80
2021/04/14 04:36:23;;;;;;;8.07;4.77;;;;;;;;;;10421239;28;20282;-80
2021/04/14 04:41:26;;;;;;;7.53;4.70;;;;;;;;;;10421496;28;20699;-81
2021/04/14 04:46:28;;;;;;;10.07;4.80;;;;;;;;;;10402857;28;20554;-78
2021/04/14 04:51:30;;;;;;;9.57;4.13;;;;;;;;;;10406882;28;20212;-77
2021/04/14 04:56:32;;;;;;;6.70;4.40;;;;;;;;;;10402886;28;20204;-78
2021/04/14 05:01:35;;;;;;;10.83;4.50;;;;;;;;;;10422405;28;20236;-87
2021/04/14 05:06:37;;;;;;;6.17;4.30;;;;;;;;;;10413594;28;20211;-79
2021/04/14 05:11:40;;;;;;;9.67;4.50;;;;;;;;;;10418332;28;20215;-78
2021/04/14 05:16:42;;;;;;;6.43;4.47;;;;;;;;;;10412390;28;20684;-78
2021/04/14 05:21:45;;;;;;;7.60;4.60;;;;;;;;;;10415092;28;20232;-77
2021/04/14 05:26:48;;;;;;;7.17;4.40;;;;;;;;;;10415612;28;20208;-77
2021/04/14 05:31:49;;;;;;;10.47;4.70;;;;;;;;;;10418346;28;20444;-76
2021/04/14 05:36:52;;;;;;;7.90;4.30;;;;;;;;;;10415947;28;20759;-77
2021/04/14 05:41:55;;;;;;;9.90;5.20;;;;;;;;;;10414585;28;20230;-76
2021/04/14 05:46:56;;;;;;;7.33;4.53;;;;;;;;;;10429593;28;20211;-77
2021/04/14 05:51:58;;;;;;;6.83;4.53;;;;;;;;;;10418529;28;20219;-77
2021/04/14 05:57:01;;;;;;;7.17;4.60;;;;;;;;;;10420027;28;20306;-77
2021/04/14 06:02:03;;;;;;;9.10;5.17;;;;;;;;;;10416618;28;20240;-76
2021/04/14 06:07:05;;;;;;;7.63;4.90;;;;;;;;;;10417955;28;20579;-77
2021/04/14 06:12:08;;;;;;;14.07;6.30;;;;;;;;;;10418960;28;20580;-78
2021/04/14 06:17:10;;;;;;;9.70;5.57;;;;;;;;;;10426123;28;20227;-77
2021/04/14 06:22:12;;;;;;;11.90;6.53;;;;;;;;;;10412848;28;20236;-76
2021/04/14 06:27:27;;;;;;;14.03;7.73;;;;;;;;;;10415036;28;20215;-78
2021/04/14 06:32:29;;;;;;;12.50;7.87;;;;;;;;;;10415147;28;20203;-78
2021/04/14 06:37:31;;;;;;;15.50;9.07;;;;;;;;;;10418924;28;20213;-78
2021/04/14 06:42:46;;;;;;;13.83;8.70;;;;;;;;;;10410153;28;20742;-78
2021/04/14 06:47:54;;;;;;;16.43;9.20;;;;;;;;;;10413909;28;20215;-77
2021/04/14 06:53:06;;;;;;;16.83;8.30;;;;;;;;;;10415960;28;20222;-78
2021/04/14 06:58:10;;;;;;;12.97;7.97;;;;;;;;;;10399973;28;20215;-78
2021/04/14 07:03:14;;;;;;;16.57;9.40;;;;;;;;;;10411824;28;20731;-77
2021/04/14 07:08:18;;;;;;;14.90;9.13;;;;;;;;;;10411456;28;20452;-77
2021/04/14 07:13:21;;;;;;;14.17;8.70;;;;;;;;;;10412519;28;20215;-78
2021/04/14 07:18:26;;;;;;;14.47;9.37;;;;;;;;;;10421481;28;20588;-78
2021/04/14 07:23:42;;;;;;;14.63;8.67;;;;;;;;;;10416296;28;20277;-76
2021/04/14 07:28:59;;;;;;;14.13;7.63;;;;;;;;;;10415104;28;20219;-78
2021/04/14 07:34:07;;;;;;;12.20;6.77;;;;;;;;;;10412097;28;20216;-81
2021/04/14 07:39:12;;;;;;;13.23;6.97;;;;;;;;;;10408124;28;20315;-76
2021/04/14 07:44:17;;;;;;;10.70;6.80;;;;;;;;;;10412893;28;20246;-77
2021/04/14 07:49:21;;;;;;;10.63;6.60;;;;;;;;;;10415611;28;20810;-80
2021/04/14 07:54:23;;;;;;;11.77;6.20;;;;;;;;;;10416531;28;20211;-77
2021/04/14 07:59:28;;;;;;;11.97;6.47;;;;;;;;;;10404426;28;20631;-79
2021/04/14 08:04:32;;;;;;;11.33;6.03;;;;;;;;;;10418674;28;20238;-77
2021/04/14 08:09:34;;;;;;;12.17;6.37;;;;;;;;;;10409032;28;20635;-76
2021/04/14 08:14:39;;;;;;;10.80;6.20;;;;;;;;;;10408181;28;20211;-79
2021/04/14 08:19:42;;;;;;;11.97;6.50;;;;;;;;;;10419676;28;20223;-79
2021/04/14 08:24:49;;;;;;;12.30;6.83;;;;;;;;;;10406789;28;20334;-77
2021/04/14 08:30:01;;;;;;;13.33;6.67;;;;;;;;;;10409260;28;20215;-79
2021/04/14 08:35:06;;;;;;;10.27;6.50;;;;;;;;;;10411267;28;20620;-78
2021/04/14 08:40:21;;;;;;;13.93;6.73;;;;;;;;;;10413546;28;20216;-78
2021/04/14 08:45:27;;;;;;;12.43;6.43;;;;;;;;;;10409556;28;20243;-77
2021/04/14 08:50:32;;;;;;;13.13;6.90;;;;;;;;;;10417056;28;20211;-77
2021/04/14 08:55:34;;;;;;;11.23;6.80;;;;;;;;;;10414070;28;20207;-76
2021/04/14 09:00:37;;;;;;;10.73;6.97;;;;;;;;;;10411783;28;20208;-78
2021/04/14 09:05:42;;;;;;;12.40;7.20;;;;;;;;;;10419144;28;20755;-78
2021/04/14 09:10:50;;;;;;;18.37;8.57;;;;;;;;;;10411131;28;20699;-79
2021/04/14 09:15:54;;;;;;;10.80;7.20;;;;;;;;;;10408910;28;20685;-77
2021/04/14 09:21:11;;;;;;;11.30;7.13;;;;;;;;;;10405704;28;20212;-79
2021/04/14 09:26:28;;;;;;;14.83;7.20;;;;;;;;;;10410307;28;20242;-78
2021/04/14 09:31:39;;;;;;;11.37;6.97;;;;;;;;;;10411496;28;20261;-78
2021/04/14 09:36:46;;;;;;;10.40;6.37;;;;;;;;;;10418588;28;20240;-78
2021/04/14 09:41:51;;;;;;;12.77;6.63;;;;;;;;;;10409418;28;20220;-78
2021/04/14 09:46:55;;;;;;;9.07;5.77;;;;;;;;;;10412686;28;20244;-77
2021/04/14 09:51:59;;;;;;;9.67;5.57;;;;;;;;;;10416784;28;20211;-78
2021/04/14 09:57:03;;;;;;;10.97;5.50;;;;;;;;;;10406988;28;20215;-76
2021/04/14 10:02:22;;;;;;;11.97;6.90;;;;;;;;;;10414864;28;20329;-77
2021/04/14 10:07:27;;;;;;;8.73;5.47;;;;;;;;;;10421270;28;20247;-76
2021/04/14 10:12:29;;;;;;;10.37;5.27;;;;;;;;;;10414592;28;20245;-79
2021/04/14 10:17:32;;;;;;;14.63;5.27;;;;;;;;;;10419327;28;20223;-78
2021/04/14 10:22:39;;;;;;;10.07;5.13;;;;;;;;;;10420458;28;20227;-78
2021/04/14 10:27:41;;;;;;;9.60;5.37;;;;;;;;;;10408132;28;20220;-77
2021/04/14 10:32:43;;;;;;;7.07;4.23;;;;;;;;;;10416851;28;20726;-77
2021/04/14 10:37:46;;;;;;;9.27;4.53;;;;;;;;;;10418603;28;20211;-78
2021/04/14 10:42:49;;;;;;;6.37;3.90;;;;;;;;;;10415724;28;20235;-76
2021/04/14 10:47:52;;;;;;;10.37;3.87;;;;;;;;;;10417611;28;20225;-79
2021/04/14 10:52:59;;;;;;;8.93;3.60;;;;;;;;;;10418957;28;20211;-77
2021/04/14 10:58:02;;;;;;;9.27;4.20;;;;;;;;;;10415808;28;20223;-77
2021/04/14 11:03:06;;;;;;;9.03;4.03;;;;;;;;;;10422165;28;20235;-77
2021/04/14 11:08:09;;;;;;;7.23;4.20;;;;;;;;;;10414624;28;20212;-77
2021/04/14 11:13:14;;;;;;;8.43;4.47;;;;;;;;;;10419137;28;20222;-78
2021/04/14 11:18:17;;;;;;;8.73;4.43;;;;;;;;;;10409982;28;20204;-79
2021/04/14 11:23:21;;;;;;;4.60;2.93;;;;;;;;;;10424638;28;20246;-78
2021/04/14 11:28:23;;;;;;;6.23;2.80;;;;;;;;;;10419716;28;20219;-76
2021/04/14 11:33:33;;;;;;;3.40;1.80;;;;;;;;;;10417361;28;20296;-77
2021/04/14 11:38:37;;;;;;;2.90;1.20;;;;;;;;;;10406286;28;20584;-75
2021/04/14 11:43:39;;;;;;;1.70;1.10;;;;;;;;;;10409077;28;20231;-76
2021/04/14 11:48:43;;;;;;;2.83;1.00;;;;;;;;;;10418107;28;20219;-77
2021/04/14 11:53:48;;;;;;;2.53;1.00;;;;;;;;;;10413744;28;20209;-76
2021/04/14 11:58:51;;;;;;;1.50;1.00;;;;;;;;;;10418256;28;20548;-76
2021/04/14 12:03:53;;;;;;;1.67;1.00;;;;;;;;;;10414885;28;20231;-78
2021/04/14 12:08:55;;;;;;;1.93;1.00;;;;;;;;;;10407118;28;20582;-76
2021/04/14 12:13:57;;;;;;;2.27;1.03;;;;;;;;;;10417135;28;20899;-76
2021/04/14 12:18:59;;;;;;;3.23;1.30;;;;;;;;;;10414904;28;20211;-76
2021/04/14 12:24:03;;;;;;;3.07;1.10;;;;;;;;;;10416530;28;20598;-78
2021/04/14 12:29:05;;;;;;;4.20;1.50;;;;;;;;;;10412442;28;20779;-76
2021/04/14 12:34:07;;;;;;;5.50;1.50;;;;;;;;;;10416822;28;20224;-76
2021/04/14 12:39:10;;;;;;;4.70;1.47;;;;;;;;;;10413124;28;20262;-78
2021/04/14 12:44:12;;;;;;;2.60;1.20;;;;;;;;;;10407061;28;20239;-77
2021/04/14 12:49:15;;;;;;;4.27;1.30;;;;;;;;;;10418900;28;20211;-76
2021/04/14 12:54:29;;;;;;;3.30;1.20;;;;;;;;;;10416930;28;20215;-78
2021/04/14 12:59:34;;;;;;;6.37;1.70;;;;;;;;;;10412910;28;20218;-78
2021/04/14 13:04:40;;;;;;;6.80;2.20;;;;;;;;;;10403754;28;20244;-77
2021/04/14 13:09:44;;;;;;;7.43;2.07;;;;;;;;;;10409041;28;20278;-76
2021/04/14 13:14:45;;;;;;;5.40;2.17;;;;;;;;;;10404999;28;20238;-78
2021/04/14 13:19:47;;;;;;;5.57;2.10;;;;;;;;;;10412353;28;20271;-77
2021/04/14 13:24:51;;;;;;;4.47;1.50;;;;;;;;;;10407835;28;20246;-77
2021/04/14 13:29:56;;;;;;;4.33;1.70;;;;;;;;;;10415313;28;20215;-76
2021/04/14 13:35:00;;;;;;;5.57;1.67;;;;;;;;;;10421070;28;20308;-77
2021/04/14 13:40:15;;;;;;;5.87;1.90;;;;;;;;;;10421580;28;20711;-78
2021/04/14 13:45:20;;;;;;;3.13;1.30;;;;;;;;;;10417367;28;20234;-77
2021/04/14 13:50:23;;;;;;;3.80;1.63;;;;;;;;;;10420748;28;20222;-78
2021/04/14 13:55:26;;;;;;;3.67;1.33;;;;;;;;;;10414822;28;20217;-78
2021/04/14 14:00:30;;;;;;;3.10;1.50;;;;;;;;;;10412984;28;20239;-78
2021/04/14 14:05:38;;;;;;;3.70;1.50;;;;;;;;;;10414319;28;20247;-77
2021/04/14 14:10:45;;;;;;;3.33;1.40;;;;;;;;;;10416455;28;20221;-75
2021/04/14 14:15:55;;;;;;;5.90;1.40;;;;;;;;;;10423059;28;20577;-76
2021/04/14 14:20:57;;;;;;;5.93;1.83;;;;;;;;;;10417985;28;20231;-76
2021/04/14 14:26:00;;;;;;;4.37;1.40;;;;;;;;;;10417803;28;20784;-77
2021/04/14 14:31:06;;;;;;;5.53;1.30;;;;;;;;;;10419507;28;20212;-77
2021/04/14 14:36:13;;;;;;;2.93;1.23;;;;;;;;;;10415916;28;20208;-77
2021/04/14 14:41:19;;;;;;;2.87;1.50;;;;;;;;;;10427194;28;20765;-78
2021/04/14 14:46:24;;;;;;;3.27;1.80;;;;;;;;;;10418711;28;20238;-77
2021/04/14 14:51:27;;;;;;;3.33;1.53;;;;;;;;;;10419946;28;20231;-76
2021/04/14 14:56:33;;;;;;;4.57;1.63;;;;;;;;;;10415933;28;20211;-77
2021/04/14 15:01:37;;;;;;;2.77;1.30;;;;;;;;;;10413545;28;20611;-77
2021/04/14 15:06:39;;;;;;;4.67;1.20;;;;;;;;;;10414404;28;20227;-76
2021/04/14 15:11:42;;;;;;;5.47;1.43;;;;;;;;;;10414843;28;20211;-76
2021/04/14 15:16:44;;;;;;;2.37;1.23;;;;;;;;;;10412604;28;20216;-76
2021/04/14 15:21:47;;;;;;;3.27;1.30;;;;;;;;;;10420587;28;20211;-76
2021/04/14 15:26:53;;;;;;;4.00;1.47;;;;;;;;;;10411215;28;20252;-77
2021/04/14 15:31:59;;;;;;;2.83;1.20;;;;;;;;;;10410796;28;20215;-77
2021/04/14 15:37:01;;;;;;;3.43;1.40;;;;;;;;;;10416417;28;20228;-78
2021/04/14 15:42:04;;;;;;;5.63;2.23;;;;;;;;;;10414246;28;20572;-77
2021/04/14 15:47:06;;;;;;;5.43;1.53;;;;;;;;;;10415144;28;21852;-76
2021/04/14 15:52:08;;;;;;;3.63;1.50;;;;;;;;;;10419409;28;20383;-77
2021/04/14 15:57:15;;;;;;;4.37;1.30;;;;;;;;;;10417346;28;20229;-79
2021/04/14 16:02:17;;;;;;;3.90;1.50;;;;;;;;;;10421994;28;20238;-77
2021/04/14 16:07:19;;;;;;;4.17;1.40;;;;;;;;;;10406860;28;20250;-77
2021/04/14 16:12:23;;;;;;;3.33;1.47;;;;;;;;;;10403371;28;20676;-78
2021/04/14 16:17:25;;;;;;;5.43;1.80;;;;;;;;;;10406438;28;20615;-77
2021/04/14 16:22:28;;;;;;;4.57;1.53;;;;;;;;;;10418147;28;20300;-77
2021/04/14 16:27:31;;;;;;;4.17;1.40;;;;;;;;;;10413234;28;20250;-78
2021/04/14 16:32:32;;;;;;;5.23;1.40;;;;;;;;;;10407263;28;20223;-78
2021/04/14 16:37:34;;;;;;;2.73;1.30;;;;;;;;;;10414182;28;20681;-77
2021/04/14 16:42:37;;;;;;;1.43;1.00;;;;;;;;;;10412338;28;20222;-77
2021/04/14 16:47:40;;;;;;;3.93;1.33;;;;;;;;;;10410582;28;20243;-77
2021/04/14 16:52:45;;;;;;;2.03;1.20;;;;;;;;;;10402367;28;20311;-76
2021/04/14 16:57:48;;;;;;;2.33;1.30;;;;;;;;;;10409762;28;20231;-78
2021/04/14 17:02:50;;;;;;;5.87;1.20;;;;;;;;;;10404948;28;20727;-76
2021/04/14 17:07:52;;;;;;;5.53;1.37;;;;;;;;;;10417897;28;20841;-77
2021/04/14 17:12:58;;;;;;;2.40;1.30;;;;;;;;;;10417903;28;20218;-77
2021/04/14 17:18:00;;;;;;;3.37;1.50;;;;;;;;;;10417343;28;20604;-76
2021/04/14 17:23:02;;;;;;;2.17;1.07;;;;;;;;;;10437019;28;20254;-77
2021/04/14 17:28:06;;;;;;;4.07;1.23;;;;;;;;;;10417981;28;20240;-77
2021/04/14 17:33:09;;;;;;;3.37;1.13;;;;;;;;;;10427936;28;20208;-77
2021/04/14 17:38:13;;;;;;;4.03;1.43;;;;;;;;;;10418630;28;20216;-77
2021/04/14 17:43:16;;;;;;;6.00;1.20;;;;;;;;;;10387786;28;20575;-77
2021/04/14 17:48:18;;;;;;;2.37;1.10;;;;;;;;;;10418478;28;20215;-78
2021/04/14 17:53:23;;;;;;;1.83;1.10;;;;;;;;;;10407005;28;20676;-78
2021/04/14 17:58:26;;;;;;;3.10;1.40;;;;;;;;;;10419449;28;20327;-77
2021/04/14 18:03:28;;;;;;;3.30;1.20;;;;;;;;;;10419908;28;20235;-77
2021/04/14 18:08:31;;;;;;;2.23;1.00;;;;;;;;;;10414093;28;20214;-78
2021/04/14 18:13:34;;;;;;;2.80;1.10;;;;;;;;;;10414937;28;20219;-77
2021/04/14 18:18:39;;;;;;;3.23;1.43;;;;;;;;;;10415136;28;20222;-77
2021/04/14 18:23:43;;;;;;;5.80;1.47;;;;;;;;;;10417247;28;20736;-79
2021/04/14 18:28:46;;;;;;;4.03;1.40;;;;;;;;;;10418048;28;20208;-77
2021/04/14 18:33:50;;;;;;;4.47;1.40;;;;;;;;;;10419767;28;20221;-78
2021/04/14 18:38:52;;;;;;;3.60;1.30;;;;;;;;;;10413984;28;20702;-76
2021/04/14 18:43:55;;;;;;;1.93;1.30;;;;;;;;;;10415225;28;20240;-77
2021/04/14 18:48:58;;;;;;;2.40;1.37;;;;;;;;;;10421782;28;20310;-77
2021/04/14 18:53:59;;;;;;;2.90;1.43;;;;;;;;;;10415968;28;20232;-77
2021/04/14 18:59:02;;;;;;;3.30;1.60;;;;;;;;;;10409695;28;20584;-79
2021/04/14 19:04:04;;;;;;;10.27;2.30;;;;;;;;;;10416458;28;20247;-77
2021/04/14 19:09:07;;;;;;;3.53;1.77;;;;;;;;;;10418310;28;20243;-78
2021/04/14 19:14:10;;;;;;;8.07;2.33;;;;;;;;;;10412980;28;20584;-77
2021/04/14 19:19:16;;;;;;;9.77;3.77;;;;;;;;;;10423117;28;20506;-76
2021/04/14 19:24:18;;;;;;;6.33;2.30;;;;;;;;;;10412544;28;20688;-78
2021/04/14 19:29:21;;;;;;;5.40;2.67;;;;;;;;;;10411946;28;20224;-78
2021/04/14 19:34:23;;;;;;;4.93;1.87;;;;;;;;;;10420520;28;20219;-79
2021/04/14 19:39:24;;;;;;;6.80;2.00;;;;;;;;;;10412969;28;20213;-77
2021/04/14 19:44:28;;;;;;;7.80;2.47;;;;;;;;;;10409933;28;20236;-78
2021/04/14 19:49:30;;;;;;;7.67;2.17;;;;;;;;;;10410225;28;20208;-77
2021/04/14 19:54:32;;;;;;;5.40;1.77;;;;;;;;;;10421798;28;20692;-79
2021/04/14 19:59:35;;;;;;;7.03;2.10;;;;;;;;;;10407625;28;20216;-77
2021/04/14 20:04:37;;;;;;;6.17;2.03;;;;;;;;;;10402818;28;20239;-76
2021/04/14 20:09:39;;;;;;;6.40;2.17;;;;;;;;;;10419487;28;20207;-78
2021/04/14 20:14:41;;;;;;;4.80;2.10;;;;;;;;;;10410548;28;20217;-76
2021/04/14 20:19:43;;;;;;;3.43;1.83;;;;;;;;;;10411496;28;20601;-79
2021/04/14 20:24:45;;;;;;;6.30;1.93;;;;;;;;;;10409316;28;20231;-79
2021/04/14 20:29:49;;;;;;;3.80;1.53;;;;;;;;;;10407259;28;20216;-78
2021/04/14 20:34:51;;;;;;;5.73;1.70;;;;;;;;;;10406196;28;20221;-78
2021/04/14 20:39:53;;;;;;;5.13;2.10;;;;;;;;;;10411212;28;20365;-76
2021/04/14 20:44:55;;;;;;;7.77;2.20;;;;;;;;;;10407192;28;20625;-77
2021/04/14 20:49:57;;;;;;;5.93;2.70;;;;;;;;;;10411389;28;20223;-77
2021/04/14 20:54:59;;;;;;;8.93;3.57;;;;;;;;;;10410953;28;20211;-78
2021/04/14 21:00:01;;;;;;;5.53;3.30;;;;;;;;;;10400492;28;20219;-77
2021/04/14 21:05:04;;;;;;;8.07;2.60;;;;;;;;;;10406282;28;20247;-76
2021/04/14 21:10:06;;;;;;;6.07;2.77;;;;;;;;;;10412628;28;20576;-77
2021/04/14 21:15:10;;;;;;;9.20;2.53;;;;;;;;;;10400491;28;20613;-76
2021/04/14 21:20:13;;;;;;;7.23;2.37;;;;;;;;;;10408007;28;23612;-76
2021/04/14 21:25:15;;;;;;;6.30;2.23;;;;;;;;;;10405083;28;20258;-76
2021/04/14 21:30:20;;;;;;;8.17;2.10;;;;;;;;;;10410886;28;20239;-77
2021/04/14 21:35:23;;;;;;;5.10;2.30;;;;;;;;;;10412261;28;20523;-78
2021/04/14 21:40:26;;;;;;;5.57;2.10;;;;;;;;;;10419951;28;20685;-76
2021/04/14 21:45:28;;;;;;;4.57;1.43;;;;;;;;;;10409721;28;20247;-76
2021/04/14 21:50:30;;;;;;;5.77;1.90;;;;;;;;;;10415867;28;20246;-76
2021/04/14 21:55:32;;;;;;;5.20;2.03;;;;;;;;;;10419535;28;20384;-77
2021/04/14 22:00:37;;;;;;;8.50;2.10;;;;;;;;;;10414951;28;20211;-77
2021/04/14 22:05:39;;;;;;;6.70;2.00;;;;;;;;;;10410648;28;20577;-76
2021/04/14 22:10:41;;;;;;;4.47;1.90;;;;;;;;;;10421821;28;21469;-76
2021/04/14 22:15:44;;;;;;;5.73;2.10;;;;;;;;;;10433219;28;20223;-76
2021/04/14 22:20:48;;;;;;;8.07;2.87;;;;;;;;;;10422503;28;20210;-77
2021/04/14 22:25:52;;;;;;;6.97;2.40;;;;;;;;;;10416737;28;20536;-76
2021/04/14 22:30:56;;;;;;;13.23;3.73;;;;;;;;;;10429988;28;20629;-76
2021/04/14 22:35:59;;;;;;;5.87;2.50;;;;;;;;;;10416738;28;20208;-76
2021/04/14 22:41:02;;;;;;;5.27;2.10;;;;;;;;;;10421636;28;20219;-75
2021/04/14 22:46:05;;;;;;;8.47;2.80;;;;;;;;;;10418399;28;20246;-75
2021/04/14 22:51:08;;;;;;;10.83;3.37;;;;;;;;;;10425606;28;20668;-74
2021/04/14 22:56:11;;;;;;;6.53;2.47;;;;;;;;;;10417164;28;20215;-76
2021/04/14 23:01:15;;;;;;;7.37;2.63;;;;;;;;;;10420027;28;20250;-78
2021/04/14 23:06:18;;;;;;;7.30;2.97;;;;;;;;;;10406846;28;20437;-76
2021/04/14 23:11:20;;;;;;;8.43;3.00;;;;;;;;;;10425623;28;20204;-76
2021/04/14 23:16:23;;;;;;;9.57;3.50;;;;;;;;;;10428527;28;20587;-75
2021/04/14 23:21:26;;;;;;;6.30;2.50;;;;;;;;;;10418961;28;20211;-77
2021/04/14 23:26:28;;;;;;;5.40;2.83;;;;;;;;;;10415425;28;20716;-76
2021/04/14 23:31:30;;;;;;;8.00;3.30;;;;;;;;;;10415518;28;20219;-75
2021/04/14 23:36:35;;;;;;;10.50;3.70;;;;;;;;;;10423348;28;20230;-76
2021/04/14 23:41:38;;;;;;;9.20;3.03;;;;;;;;;;10417715;28;20219;-75
2021/04/14 23:46:41;;;;;;;4.33;1.93;;;;;;;;;;10421006;28;20241;-77
2021/04/14 23:51:43;;;;;;;6.43;2.03;;;;;;;;;;10420624;28;20242;-76
2021/04/14 23:56:45;;;;;;;4.10;1.73;;;;;;;;;;10407399;28;20208;-74
